sensor_id;sensor_type;location;lat;lon;timestamp;pressure;altitude;pressure_sealevel;temperature;humidity
45541;BME280;31265;49.680;8.608;2024-02-26T00:02:04;98643.78;;;8.94;100.00
45541;BME280;31265;49.680;8.608;2024-02-26T00:04:33;98640.63;;;8.88;100.00
45541;BME280;31265;49.680;8.608;2024-02-26T00:07:04;98641.56;;;8.80;100.00
45541;BME280;31265;49.680;8.608;2024-02-26T00:09:33;98643.91;;;8.74;100.00
45541;BME280;31265;49.680;8.608;2024-02-26T00:12:05;98652.16;;;8.84;100.00
45541;BME280;31265;49.680;8.608;2024-02-26T00:14:34;98643.47;;;8.78;100.00
45541;BME280;31265;49.680;8.608;2024-02-26T00:17:03;98643.59;;;9.01;100.00
45541;BME280;31265;49.680;8.608;2024-02-26T00:19:32;98647.63;;;9.32;100.00
45541;BME280;31265;49.680;8.608;2024-02-26T00:22:02;98643.47;;;9.21;100.00
45541;BME280;31265;49.680;8.608;2024-02-26T00:24:30;98641.34;;;9.10;100.00
45541;BME280;31265;49.680;8.608;2024-02-26T00:26:59;98646.94;;;9.00;100.00
45541;BME280;31265;49.680;8.608;2024-02-26T00:29:28;98657.16;;;8.97;100.00
45541;BME280;31265;49.680;8.608;2024-02-26T00:31:56;98664.16;;;8.98;100.00
45541;BME280;31265;49.680;8.608;2024-02-26T00:34:24;98660.59;;;8.86;100.00
45541;BME280;31265;49.680;8.608;2024-02-26T00:36:53;98664.59;;;8.73;100.00
45541;BME280;31265;49.680;8.608;2024-02-26T00:39:23;98661.13;;;8.63;100.00
45541;BME280;31265;49.680;8.608;2024-02-26T00:41:51;98639.47;;;8.59;100.00
45541;BME280;31265;49.680;8.608;2024-02-26T00:44:19;98646.06;;;8.45;100.00
45541;BME280;31265;49.680;8.608;2024-02-26T00:46:48;98645.50;;;8.36;100.00
45541;BME280;31265;49.680;8.608;2024-02-26T00:49:16;98653.34;;;8.30;100.00
45541;BME280;31265;49.680;8.608;2024-02-26T00:51:45;98635.06;;;8.25;100.00
45541;BME280;31265;49.680;8.608;2024-02-26T00:54:13;98625.00;;;8.30;100.00
45541;BME280;31265;49.680;8.608;2024-02-26T00:56:43;98646.22;;;8.37;100.00
45541;BME280;31265;49.680;8.608;2024-02-26T00:59:13;98657.41;;;8.39;100.00
45541;BME280;31265;49.680;8.608;2024-02-26T01:01:41;98661.66;;;8.40;100.00
45541;BME280;31265;49.680;8.608;2024-02-26T01:04:09;98657.28;;;8.37;100.00
45541;BME280;31265;49.680;8.608;2024-02-26T01:06:40;98670.38;;;8.36;100.00
45541;BME280;31265;49.680;8.608;2024-02-26T01:09:09;98652.22;;;8.33;100.00
45541;BME280;31265;49.680;8.608;2024-02-26T01:11:37;98654.81;;;8.41;100.00
45541;BME280;31265;49.680;8.608;2024-02-26T01:14:10;98665.50;;;8.66;100.00
45541;BME280;31265;49.680;8.608;2024-02-26T01:16:38;98666.09;;;8.55;100.00
45541;BME280;31265;49.680;8.608;2024-02-26T01:19:06;98674.53;;;8.57;100.00
45541;BME280;31265;49.680;8.608;2024-02-26T01:21:35;98674.00;;;8.49;100.00
45541;BME280;31265;49.680;8.608;2024-02-26T01:24:04;98674.75;;;8.39;100.00
45541;BME280;31265;49.680;8.608;2024-02-26T01:26:32;98671.66;;;8.35;100.00
45541;BME280;31265;49.680;8.608;2024-02-26T01:29:01;98676.22;;;8.31;100.00
45541;BME280;31265;49.680;8.608;2024-02-26T01:31:31;98673.44;;;8.31;100.00
45541;BME280;31265;49.680;8.608;2024-02-26T01:34:00;98673.88;;;8.27;100.00
45541;BME280;31265;49.680;8.608;2024-02-26T01:36:28;98679.97;;;8.26;100.00
45541;BME280;31265;49.680;8.608;2024-02-26T01:38:56;98683.06;;;8.20;100.00
45541;BME280;31265;49.680;8.608;2024-02-26T01:41:25;98682.06;;;8.15;100.00
45541;BME280;31265;49.680;8.608;2024-02-26T01:43:54;98687.31;;;8.11;100.00
45541;BME280;31265;49.680;8.608;2024-02-26T01:46:22;98682.53;;;8.02;100.00
45541;BME280;31265;49.680;8.608;2024-02-26T01:48:52;98689.94;;;8.00;100.00
45541;BME280;31265;49.680;8.608;2024-02-26T01:51:22;98689.50;;;7.93;100.00
45541;BME280;31265;49.680;8.608;2024-02-26T01:53:51;98697.94;;;7.86;100.00
45541;BME280;31265;49.680;8.608;2024-02-26T01:56:21;98692.16;;;7.82;100.00
45541;BME280;31265;49.680;8.608;2024-02-26T01:58:49;98699.25;;;7.75;100.00
45541;BME280;31265;49.680;8.608;2024-02-26T02:01:18;98697.53;;;7.70;100.00
45541;BME280;31265;49.680;8.608;2024-02-26T02:03:48;98705.09;;;7.69;100.00
45541;BME280;31265;49.680;8.608;2024-02-26T02:06:19;98704.47;;;7.90;100.00
45541;BME280;31265;49.680;8.608;2024-02-26T02:08:48;98714.09;;;7.89;100.00
45541;BME280;31265;49.680;8.608;2024-02-26T02:11:17;98708.25;;;7.95;100.00
45541;BME280;31265;49.680;8.608;2024-02-26T02:13:45;98711.31;;;7.89;100.00
45541;BME280;31265;49.680;8.608;2024-02-26T02:16:14;98715.81;;;7.94;100.00
45541;BME280;31265;49.680;8.608;2024-02-26T02:18:42;98709.44;;;7.92;100.00
45541;BME280;31265;49.680;8.608;2024-02-26T02:21:12;98725.56;;;7.86;100.00
45541;BME280;31265;49.680;8.608;2024-02-26T02:23:40;98723.66;;;7.79;100.00
45541;BME280;31265;49.680;8.608;2024-02-26T02:26:13;98721.34;;;7.65;100.00
45541;BME280;31265;49.680;8.608;2024-02-26T02:28:42;98720.78;;;7.57;100.00
45541;BME280;31265;49.680;8.608;2024-02-26T02:31:12;98728.91;;;7.55;100.00
45541;BME280;31265;49.680;8.608;2024-02-26T02:33:41;98718.72;;;7.48;100.00
45541;BME280;31265;49.680;8.608;2024-02-26T02:36:12;98719.72;;;7.43;100.00
45541;BME280;31265;49.680;8.608;2024-02-26T02:38:48;98730.19;;;7.35;100.00
45541;BME280;31265;49.680;8.608;2024-02-26T02:41:18;98732.47;;;7.28;100.00
45541;BME280;31265;49.680;8.608;2024-02-26T02:43:46;98736.81;;;7.22;100.00
45541;BME280;31265;49.680;8.608;2024-02-26T02:46:14;98734.34;;;7.16;100.00
45541;BME280;31265;49.680;8.608;2024-02-26T02:48:43;98738.09;;;7.11;100.00
45541;BME280;31265;49.680;8.608;2024-02-26T02:51:13;98733.75;;;7.08;100.00
45541;BME280;31265;49.680;8.608;2024-02-26T02:53:41;98734.91;;;7.05;100.00
45541;BME280;31265;49.680;8.608;2024-02-26T02:56:09;98729.81;;;7.01;100.00
45541;BME280;31265;49.680;8.608;2024-02-26T02:58:38;98733.00;;;6.98;100.00
45541;BME280;31265;49.680;8.608;2024-02-26T03:01:06;98736.88;;;6.95;100.00
45541;BME280;31265;49.680;8.608;2024-02-26T03:03:35;98733.84;;;6.91;100.00
45541;BME280;31265;49.680;8.608;2024-02-26T03:06:04;98728.59;;;6.85;100.00
45541;BME280;31265;49.680;8.608;2024-02-26T03:08:33;98727.69;;;6.82;100.00
45541;BME280;31265;49.680;8.608;2024-02-26T03:11:05;98727.25;;;6.76;100.00
45541;BME280;31265;49.680;8.608;2024-02-26T03:13:33;98736.50;;;6.71;100.00
45541;BME280;31265;49.680;8.608;2024-02-26T03:16:04;98736.91;;;6.67;100.00
45541;BME280;31265;49.680;8.608;2024-02-26T03:18:33;98728.50;;;6.65;100.00
45541;BME280;31265;49.680;8.608;2024-02-26T03:21:02;98734.28;;;6.60;100.00
45541;BME280;31265;49.680;8.608;2024-02-26T03:23:31;98731.22;;;6.56;100.00
45541;BME280;31265;49.680;8.608;2024-02-26T03:26:04;98738.78;;;6.55;100.00
45541;BME280;31265;49.680;8.608;2024-02-26T03:28:33;98745.84;;;6.49;100.00
45541;BME280;31265;49.680;8.608;2024-02-26T03:31:01;98742.03;;;6.44;100.00
45541;BME280;31265;49.680;8.608;2024-02-26T03:33:31;98745.06;;;6.38;100.00
45541;BME280;31265;49.680;8.608;2024-02-26T03:35:59;98750.97;;;6.35;100.00
45541;BME280;31265;49.680;8.608;2024-02-26T03:38:28;98749.69;;;6.36;100.00
45541;BME280;31265;49.680;8.608;2024-02-26T03:40:57;98750.25;;;6.34;100.00
45541;BME280;31265;49.680;8.608;2024-02-26T03:43:26;98744.72;;;6.34;100.00
45541;BME280;31265;49.680;8.608;2024-02-26T03:45:54;98743.28;;;6.33;100.00
45541;BME280;31265;49.680;8.608;2024-02-26T03:48:23;98748.03;;;6.33;100.00
45541;BME280;31265;49.680;8.608;2024-02-26T03:50:52;98757.47;;;6.30;100.00
45541;BME280;31265;49.680;8.608;2024-02-26T03:53:20;98747.03;;;6.28;100.00
45541;BME280;31265;49.680;8.608;2024-02-26T03:55:48;98746.28;;;6.28;100.00
45541;BME280;31265;49.680;8.608;2024-02-26T03:58:20;98745.56;;;6.27;100.00
45541;BME280;31265;49.680;8.608;2024-02-26T04:00:50;98747.75;;;6.29;100.00
45541;BME280;31265;49.680;8.608;2024-02-26T04:03:18;98745.56;;;6.27;100.00
45541;BME280;31265;49.680;8.608;2024-02-26T04:05:47;98749.03;;;6.28;100.00
45541;BME280;31265;49.680;8.608;2024-02-26T04:08:15;98744.09;;;6.26;100.00
45541;BME280;31265;49.680;8.608;2024-02-26T04:10:44;98745.38;;;6.25;100.00
45541;BME280;31265;49.680;8.608;2024-02-26T04:13:12;98749.19;;;6.30;100.00
45541;BME280;31265;49.680;8.608;2024-02-26T04:15:40;98739.47;;;6.29;100.00
45541;BME280;31265;49.680;8.608;2024-02-26T04:18:10;98744.72;;;6.34;100.00
45541;BME280;31265;49.680;8.608;2024-02-26T04:20:39;98736.00;;;6.28;100.00
45541;BME280;31265;49.680;8.608;2024-02-26T04:23:09;98737.84;;;6.25;100.00
45541;BME280;31265;49.680;8.608;2024-02-26T04:25:38;98742.63;;;6.25;100.00
45541;BME280;31265;49.680;8.608;2024-02-26T04:28:06;98737.13;;;6.25;100.00
45541;BME280;31265;49.680;8.608;2024-02-26T04:30:35;98732.75;;;6.22;100.00
45541;BME280;31265;49.680;8.608;2024-02-26T04:33:03;98736.84;;;6.21;100.00
45541;BME280;31265;49.680;8.608;2024-02-26T04:35:34;98734.63;;;6.19;100.00
45541;BME280;31265;49.680;8.608;2024-02-26T04:38:03;98730.28;;;6.16;100.00
45541;BME280;31265;49.680;8.608;2024-02-26T04:40:31;98731.56;;;6.15;100.00
45541;BME280;31265;49.680;8.608;2024-02-26T04:42:59;98734.31;;;6.15;100.00
45541;BME280;31265;49.680;8.608;2024-02-26T04:45:28;98722.56;;;6.15;100.00
45541;BME280;31265;49.680;8.608;2024-02-26T04:47:56;98724.03;;;6.16;100.00
45541;BME280;31265;49.680;8.608;2024-02-26T04:50:25;98718.84;;;6.20;100.00
45541;BME280;31265;49.680;8.608;2024-02-26T04:52:54;98710.41;;;6.18;100.00
45541;BME280;31265;49.680;8.608;2024-02-26T04:55:23;98710.41;;;6.18;100.00
45541;BME280;31265;49.680;8.608;2024-02-26T04:57:51;98712.75;;;6.21;100.00
45541;BME280;31265;49.680;8.608;2024-02-26T05:00:20;98707.97;;;6.22;100.00
45541;BME280;31265;49.680;8.608;2024-02-26T05:02:48;98708.13;;;6.24;100.00
45541;BME280;31265;49.680;8.608;2024-02-26T05:05:17;98709.19;;;6.29;100.00
45541;BME280;31265;49.680;8.608;2024-02-26T05:07:46;98708.47;;;6.28;100.00
45541;BME280;31265;49.680;8.608;2024-02-26T05:10:18;98708.31;;;6.26;100.00
45541;BME280;31265;49.680;8.608;2024-02-26T05:12:46;98709.41;;;6.23;100.00
45541;BME280;31265;49.680;8.608;2024-02-26T05:15:15;98706.53;;;6.21;100.00
45541;BME280;31265;49.680;8.608;2024-02-26T05:17:45;98704.50;;;6.21;100.00
45541;BME280;31265;49.680;8.608;2024-02-26T05:20:14;98708.53;;;6.20;100.00
45541;BME280;31265;49.680;8.608;2024-02-26T05:22:43;98705.78;;;6.20;100.00
45541;BME280;31265;49.680;8.608;2024-02-26T05:25:11;98710.56;;;6.20;100.00
45541;BME280;31265;49.680;8.608;2024-02-26T05:27:41;98712.19;;;6.23;100.00
45541;BME280;31265;49.680;8.608;2024-02-26T05:30:11;98711.06;;;6.26;100.00
45541;BME280;31265;49.680;8.608;2024-02-26T05:32:39;98711.06;;;6.26;100.00
45541;BME280;31265;49.680;8.608;2024-02-26T05:35:08;98712.34;;;6.25;100.00
45541;BME280;31265;49.680;8.608;2024-02-26T05:37:36;98707.00;;;6.27;100.00
45541;BME280;31265;49.680;8.608;2024-02-26T05:40:06;98715.41;;;6.29;100.00
45541;BME280;31265;49.680;8.608;2024-02-26T05:42:35;98708.97;;;6.44;100.00
45541;BME280;31265;49.680;8.608;2024-02-26T05:45:07;98712.66;;;6.56;100.00
45541;BME280;31265;49.680;8.608;2024-02-26T05:47:36;98705.72;;;6.65;100.00
45541;BME280;31265;49.680;8.608;2024-02-26T05:50:10;98707.66;;;6.82;100.00
45541;BME280;31265;49.680;8.608;2024-02-26T05:52:39;98702.03;;;6.89;100.00
45541;BME280;31265;49.680;8.608;2024-02-26T05:55:08;98710.78;;;6.96;100.00
45541;BME280;31265;49.680;8.608;2024-02-26T05:57:40;98702.66;;;6.98;100.00
45541;BME280;31265;49.680;8.608;2024-02-26T06:00:12;98713.38;;;6.94;100.00
45541;BME280;31265;49.680;8.608;2024-02-26T06:02:41;98717.59;;;7.04;100.00
45541;BME280;31265;49.680;8.608;2024-02-26T06:05:10;98712.84;;;7.05;100.00
45541;BME280;31265;49.680;8.608;2024-02-26T06:07:38;98726.75;;;7.07;100.00
45541;BME280;31265;49.680;8.608;2024-02-26T06:10:08;98724.56;;;6.96;100.00
45541;BME280;31265;49.680;8.608;2024-02-26T06:12:36;98726.63;;;7.05;100.00
45541;BME280;31265;49.680;8.608;2024-02-26T06:15:05;98737.19;;;6.99;100.00
45541;BME280;31265;49.680;8.608;2024-02-26T06:17:36;98742.56;;;6.97;100.00
45541;BME280;31265;49.680;8.608;2024-02-26T06:20:06;98740.94;;;6.94;100.00
45541;BME280;31265;49.680;8.608;2024-02-26T06:22:39;98744.75;;;6.98;100.00
45541;BME280;31265;49.680;8.608;2024-02-26T06:25:08;98750.25;;;6.98;100.00
45541;BME280;31265;49.680;8.608;2024-02-26T06:27:36;98757.72;;;7.15;100.00
45541;BME280;31265;49.680;8.608;2024-02-26T06:30:06;98760.22;;;7.30;100.00
45541;BME280;31265;49.680;8.608;2024-02-26T06:32:39;98767.56;;;7.08;100.00
45541;BME280;31265;49.680;8.608;2024-02-26T06:35:10;98763.31;;;6.98;100.00
45541;BME280;31265;49.680;8.608;2024-02-26T06:37:39;98769.44;;;7.06;100.00
45541;BME280;31265;49.680;8.608;2024-02-26T06:40:08;98771.75;;;7.00;100.00
45541;BME280;31265;49.680;8.608;2024-02-26T06:42:37;98787.16;;;7.03;100.00
45541;BME280;31265;49.680;8.608;2024-02-26T06:45:06;98790.34;;;7.09;100.00
45541;BME280;31265;49.680;8.608;2024-02-26T06:47:34;98786.44;;;7.12;100.00
45541;BME280;31265;49.680;8.608;2024-02-26T06:50:05;98794.72;;;7.12;100.00
45541;BME280;31265;49.680;8.608;2024-02-26T06:52:34;98806.66;;;7.24;100.00
45541;BME280;31265;49.680;8.608;2024-02-26T06:55:03;98807.09;;;7.21;100.00
45541;BME280;31265;49.680;8.608;2024-02-26T06:57:35;98808.97;;;7.18;100.00
45541;BME280;31265;49.680;8.608;2024-02-26T07:00:04;98818.25;;;7.13;100.00
45541;BME280;31265;49.680;8.608;2024-02-26T07:02:33;98822.78;;;7.18;100.00
45541;BME280;31265;49.680;8.608;2024-02-26T07:05:08;98825.38;;;7.16;100.00
45541;BME280;31265;49.680;8.608;2024-02-26T07:07:36;98831.88;;;7.11;100.00
45541;BME280;31265;49.680;8.608;2024-02-26T07:10:05;98837.28;;;7.19;100.00
45541;BME280;31265;49.680;8.608;2024-02-26T07:12:34;98835.53;;;7.14;100.00
45541;BME280;31265;49.680;8.608;2024-02-26T07:15:03;98839.44;;;7.10;100.00
45541;BME280;31265;49.680;8.608;2024-02-26T07:17:32;98832.19;;;7.15;100.00
45541;BME280;31265;49.680;8.608;2024-02-26T07:20:01;98837.13;;;7.17;100.00
45541;BME280;31265;49.680;8.608;2024-02-26T07:22:37;98838.31;;;7.23;100.00
45541;BME280;31265;49.680;8.608;2024-02-26T07:25:05;98837.88;;;7.27;100.00
45541;BME280;31265;49.680;8.608;2024-02-26T07:27:34;98849.69;;;7.27;100.00
45541;BME280;31265;49.680;8.608;2024-02-26T07:30:04;98837.03;;;7.34;100.00
45541;BME280;31265;49.680;8.608;2024-02-26T07:32:33;98839.09;;;7.33;100.00
45541;BME280;31265;49.680;8.608;2024-02-26T07:35:02;98843.03;;;7.40;100.00
45541;BME280;31265;49.680;8.608;2024-02-26T07:37:30;98841.31;;;7.45;100.00
45541;BME280;31265;49.680;8.608;2024-02-26T07:40:00;98849.16;;;7.48;100.00
45541;BME280;31265;49.680;8.608;2024-02-26T07:42:28;98844.97;;;7.57;100.00
45541;BME280;31265;49.680;8.608;2024-02-26T07:44:57;98846.28;;;7.56;100.00
45541;BME280;31265;49.680;8.608;2024-02-26T07:47:25;98851.66;;;7.64;100.00
45541;BME280;31265;49.680;8.608;2024-02-26T07:49:54;98854.41;;;7.64;100.00
45541;BME280;31265;49.680;8.608;2024-02-26T07:52:23;98859.81;;;7.71;100.00
45541;BME280;31265;49.680;8.608;2024-02-26T07:54:52;98865.66;;;7.75;100.00
45541;BME280;31265;49.680;8.608;2024-02-26T07:57:23;98874.41;;;7.82;100.00
45541;BME280;31265;49.680;8.608;2024-02-26T07:59:52;98871.19;;;7.85;100.00
45541;BME280;31265;49.680;8.608;2024-02-26T08:02:21;98857.38;;;7.75;100.00
45541;BME280;31265;49.680;8.608;2024-02-26T08:04:49;98861.00;;;7.78;100.00
45541;BME280;31265;49.680;8.608;2024-02-26T08:07:17;98856.50;;;7.83;100.00
45541;BME280;31265;49.680;8.608;2024-02-26T08:09:47;98855.50;;;7.88;100.00
45541;BME280;31265;49.680;8.608;2024-02-26T08:12:15;98854.78;;;7.87;100.00
45541;BME280;31265;49.680;8.608;2024-02-26T08:14:45;98857.41;;;7.95;100.00
45541;BME280;31265;49.680;8.608;2024-02-26T08:17:14;98860.59;;;7.91;100.00
45541;BME280;31265;49.680;8.608;2024-02-26T08:19:43;98866.13;;;7.91;100.00
45541;BME280;31265;49.680;8.608;2024-02-26T08:22:11;98865.69;;;7.95;100.00
45541;BME280;31265;49.680;8.608;2024-02-26T08:24:43;98875.31;;;8.04;100.00
45541;BME280;31265;49.680;8.608;2024-02-26T08:27:11;98876.03;;;8.14;100.00
45541;BME280;31265;49.680;8.608;2024-02-26T08:29:40;98874.44;;;8.21;100.00
45541;BME280;31265;49.680;8.608;2024-02-26T08:32:11;98877.94;;;8.31;100.00
45541;BME280;31265;49.680;8.608;2024-02-26T08:34:41;98874.88;;;8.36;100.00
45541;BME280;31265;49.680;8.608;2024-02-26T08:37:10;98867.91;;;8.45;100.00
45541;BME280;31265;49.680;8.608;2024-02-26T08:39:38;98871.56;;;8.48;100.00
45541;BME280;31265;49.680;8.608;2024-02-26T08:42:06;98886.09;;;8.58;100.00
45541;BME280;31265;49.680;8.608;2024-02-26T08:44:35;98884.75;;;8.88;100.00
45541;BME280;31265;49.680;8.608;2024-02-26T08:47:04;98883.28;;;8.97;100.00
45541;BME280;31265;49.680;8.608;2024-02-26T08:49:34;98880.19;;;9.12;100.00
45541;BME280;31265;49.680;8.608;2024-02-26T08:52:04;98878.38;;;9.26;100.00
45541;BME280;31265;49.680;8.608;2024-02-26T08:54:33;98871.38;;;9.35;100.00
45541;BME280;31265;49.680;8.608;2024-02-26T08:57:02;98877.44;;;9.43;100.00
45541;BME280;31265;49.680;8.608;2024-02-26T08:59:32;98871.53;;;9.59;100.00
45541;BME280;31265;49.680;8.608;2024-02-26T09:02:00;98880.28;;;9.65;100.00
45541;BME280;31265;49.680;8.608;2024-02-26T09:04:29;98878.31;;;9.77;100.00
45541;BME280;31265;49.680;8.608;2024-02-26T09:06:59;98886.28;;;9.52;100.00
45541;BME280;31265;49.680;8.608;2024-02-26T09:09:28;98892.75;;;9.44;100.00
45541;BME280;31265;49.680;8.608;2024-02-26T09:11:56;98889.94;;;9.54;100.00
45541;BME280;31265;49.680;8.608;2024-02-26T09:14:25;98887.03;;;9.52;100.00
45541;BME280;31265;49.680;8.608;2024-02-26T09:16:55;98882.56;;;9.68;100.00
45541;BME280;31265;49.680;8.608;2024-02-26T09:19:25;98883.44;;;9.71;100.00
45541;BME280;31265;49.680;8.608;2024-02-26T09:21:55;98872.25;;;9.90;100.00
45541;BME280;31265;49.680;8.608;2024-02-26T09:24:26;98887.03;;;9.83;100.00
45541;BME280;31265;49.680;8.608;2024-02-26T09:26:55;98898.66;;;9.92;100.00
45541;BME280;31265;49.680;8.608;2024-02-26T09:29:23;98888.06;;;9.78;100.00
45541;BME280;31265;49.680;8.608;2024-02-26T09:31:54;98891.56;;;9.79;100.00
45541;BME280;31265;49.680;8.608;2024-02-26T09:34:22;98895.28;;;9.93;100.00
45541;BME280;31265;49.680;8.608;2024-02-26T09:36:54;98904.69;;;10.31;100.00
45541;BME280;31265;49.680;8.608;2024-02-26T09:39:36;98910.41;;;10.66;100.00
45541;BME280;31265;49.680;8.608;2024-02-26T09:42:04;98910.97;;;10.65;100.00
45541;BME280;31265;49.680;8.608;2024-02-26T09:44:36;98917.56;;;10.81;100.00
45541;BME280;31265;49.680;8.608;2024-02-26T09:47:09;98913.25;;;10.57;100.00
45541;BME280;31265;49.680;8.608;2024-02-26T09:49:38;98912.31;;;10.64;100.00
45541;BME280;31265;49.680;8.608;2024-02-26T09:52:08;98917.31;;;10.77;100.00
45541;BME280;31265;49.680;8.608;2024-02-26T09:54:39;98925.03;;;10.79;100.00
45541;BME280;31265;49.680;8.608;2024-02-26T09:57:09;98928.81;;;10.83;100.00
45541;BME280;31265;49.680;8.608;2024-02-26T09:59:44;98925.59;;;10.98;100.00
45541;BME280;31265;49.680;8.608;2024-02-26T10:02:13;98933.91;;;10.98;100.00
45541;BME280;31265;49.680;8.608;2024-02-26T10:04:42;98933.38;;;11.35;100.00
45541;BME280;31265;49.680;8.608;2024-02-26T10:07:17;98932.44;;;11.54;100.00
45541;BME280;31265;49.680;8.608;2024-02-26T10:09:48;98945.13;;;11.57;100.00
45541;BME280;31265;49.680;8.608;2024-02-26T10:12:17;98936.63;;;11.32;100.00
45541;BME280;31265;49.680;8.608;2024-02-26T10:14:46;98938.75;;;11.10;100.00
45541;BME280;31265;49.680;8.608;2024-02-26T10:17:16;98931.00;;;10.96;100.00
45541;BME280;31265;49.680;8.608;2024-02-26T10:19:46;98925.63;;;11.10;100.00
45541;BME280;31265;49.680;8.608;2024-02-26T10:22:15;98928.22;;;10.96;100.00
45541;BME280;31265;49.680;8.608;2024-02-26T10:24:48;98920.03;;;10.65;100.00
45541;BME280;31265;49.680;8.608;2024-02-26T10:27:16;98928.75;;;10.50;100.00
45541;BME280;31265;49.680;8.608;2024-02-26T10:29:45;98932.75;;;10.47;100.00
45541;BME280;31265;49.680;8.608;2024-02-26T10:32:15;98935.19;;;10.86;100.00
45541;BME280;31265;49.680;8.608;2024-02-26T10:34:45;98940.13;;;11.21;100.00
45541;BME280;31265;49.680;8.608;2024-02-26T10:37:14;98940.03;;;11.42;100.00
45541;BME280;31265;49.680;8.608;2024-02-26T10:39:47;98936.81;;;11.12;100.00
45541;BME280;31265;49.680;8.608;2024-02-26T10:42:16;98937.53;;;11.01;100.00
45541;BME280;31265;49.680;8.608;2024-02-26T10:44:47;98933.97;;;11.34;100.00
45541;BME280;31265;49.680;8.608;2024-02-26T10:47:16;98946.06;;;11.62;100.00
45541;BME280;31265;49.680;8.608;2024-02-26T10:49:45;98948.31;;;11.87;100.00
45541;BME280;31265;49.680;8.608;2024-02-26T10:52:15;98938.25;;;11.70;100.00
45541;BME280;31265;49.680;8.608;2024-02-26T10:54:49;98954.81;;;12.03;100.00
45541;BME280;31265;49.680;8.608;2024-02-26T10:57:22;98944.91;;;11.89;100.00
45541;BME280;31265;49.680;8.608;2024-02-26T10:59:53;98955.09;;;12.45;100.00
45541;BME280;31265;49.680;8.608;2024-02-26T11:02:22;98952.06;;;12.53;100.00
45541;BME280;31265;49.680;8.608;2024-02-26T11:04:51;98957.63;;;12.41;100.00
45541;BME280;31265;49.680;8.608;2024-02-26T11:07:20;98964.69;;;12.30;100.00
45541;BME280;31265;49.680;8.608;2024-02-26T11:09:52;98960.28;;;12.51;100.00
45541;BME280;31265;49.680;8.608;2024-02-26T11:12:22;98956.22;;;13.28;100.00
45541;BME280;31265;49.680;8.608;2024-02-26T11:14:55;98959.91;;;12.94;100.00
45541;BME280;31265;49.680;8.608;2024-02-26T11:17:27;98956.88;;;13.15;100.00
45541;BME280;31265;49.680;8.608;2024-02-26T11:19:59;98964.69;;;13.30;100.00
45541;BME280;31265;49.680;8.608;2024-02-26T11:22:29;98959.09;;;12.54;100.00
45541;BME280;31265;49.680;8.608;2024-02-26T11:25:02;98969.72;;;12.45;100.00
45541;BME280;31265;49.680;8.608;2024-02-26T11:27:32;98966.91;;;12.57;100.00
45541;BME280;31265;49.680;8.608;2024-02-26T11:30:05;98972.06;;;12.25;100.00
45541;BME280;31265;49.680;8.608;2024-02-26T11:32:38;98969.19;;;12.61;100.00
45541;BME280;31265;49.680;8.608;2024-02-26T11:35:07;98973.16;;;12.09;100.00
45541;BME280;31265;49.680;8.608;2024-02-26T11:37:37;98975.09;;;12.06;100.00
45541;BME280;31265;49.680;8.608;2024-02-26T11:40:14;98962.78;;;11.97;100.00
45541;BME280;31265;49.680;8.608;2024-02-26T11:42:43;98967.47;;;12.30;100.00
45541;BME280;31265;49.680;8.608;2024-02-26T11:45:47;98966.09;;;12.55;100.00
45541;BME280;31265;49.680;8.608;2024-02-26T11:48:20;98969.13;;;12.84;100.00
45541;BME280;31265;49.680;8.608;2024-02-26T11:50:52;98968.56;;;13.00;100.00
45541;BME280;31265;49.680;8.608;2024-02-26T11:53:23;98968.69;;;12.76;100.00
45541;BME280;31265;49.680;8.608;2024-02-26T11:56:25;98978.03;;;12.69;100.00
45541;BME280;31265;49.680;8.608;2024-02-26T11:59:00;98984.00;;;12.52;100.00
45541;BME280;31265;49.680;8.608;2024-02-26T12:01:42;98980.03;;;12.80;100.00
45541;BME280;31265;49.680;8.608;2024-02-26T12:04:17;98980.19;;;12.70;100.00
45541;BME280;31265;49.680;8.608;2024-02-26T12:06:50;98976.09;;;12.97;100.00
45541;BME280;31265;49.680;8.608;2024-02-26T12:09:35;98975.88;;;13.44;100.00
45541;BME280;31265;49.680;8.608;2024-02-26T12:12:07;98980.44;;;13.51;100.00
45541;BME280;31265;49.680;8.608;2024-02-26T12:14:50;98978.94;;;13.90;100.00
45541;BME280;31265;49.680;8.608;2024-02-26T12:17:20;98987.94;;;14.16;100.00
45541;BME280;31265;49.680;8.608;2024-02-26T12:19:48;98977.41;;;14.14;100.00
45541;BME280;31265;49.680;8.608;2024-02-26T12:22:19;98992.78;;;14.15;100.00
45541;BME280;31265;49.680;8.608;2024-02-26T12:24:48;98991.84;;;13.97;100.00
45541;BME280;31265;49.680;8.608;2024-02-26T12:27:28;98992.28;;;13.38;100.00
45541;BME280;31265;49.680;8.608;2024-02-26T12:29:57;98983.47;;;13.83;100.00
45541;BME280;31265;49.680;8.608;2024-02-26T12:32:26;98984.00;;;13.93;100.00
45541;BME280;31265;49.680;8.608;2024-02-26T12:34:54;98983.19;;;14.18;100.00
45541;BME280;31265;49.680;8.608;2024-02-26T12:37:23;98991.22;;;14.54;100.00
45541;BME280;31265;49.680;8.608;2024-02-26T12:39:51;98996.69;;;14.66;100.00
45541;BME280;31265;49.680;8.608;2024-02-26T12:42:21;98991.63;;;14.07;100.00
45541;BME280;31265;49.680;8.608;2024-02-26T12:44:51;98993.16;;;14.51;100.00
45541;BME280;31265;49.680;8.608;2024-02-26T12:47:20;98995.56;;;14.57;100.00
45541;BME280;31265;49.680;8.608;2024-02-26T12:49:49;98997.31;;;14.50;100.00
45541;BME280;31265;49.680;8.608;2024-02-26T12:52:18;99005.81;;;14.25;100.00
45541;BME280;31265;49.680;8.608;2024-02-26T12:54:47;99007.13;;;14.51;100.00
45541;BME280;31265;49.680;8.608;2024-02-26T12:57:21;99007.19;;;14.81;100.00
45541;BME280;31265;49.680;8.608;2024-02-26T12:59:52;99009.41;;;14.41;100.00
45541;BME280;31265;49.680;8.608;2024-02-26T13:02:22;99003.03;;;14.25;100.00
45541;BME280;31265;49.680;8.608;2024-02-26T13:04:52;99004.00;;;14.73;100.00
45541;BME280;31265;49.680;8.608;2024-02-26T13:07:21;99005.41;;;15.01;100.00
45541;BME280;31265;49.680;8.608;2024-02-26T13:09:51;99006.81;;;15.32;100.00
45541;BME280;31265;49.680;8.608;2024-02-26T13:12:19;99007.25;;;15.88;100.00